sensor_id;sensor_type;location;lat;lon;timestamp;P1;P2;P0
72509;PMS5003;60532;56.114;40.350;2023-06-10T00:01:37;4.00;4.00;2.50
72509;PMS5003;60532;56.114;40.350;2023-06-10T00:03:38;5.50;3.00;2.00
72509;PMS5003;60532;56.114;40.350;2023-06-10T00:05:38;3.00;3.00;1.00
72509;PMS5003;60532;56.114;40.350;2023-06-10T00:07:39;4.00;4.00;2.00
72509;PMS5003;60532;56.114;40.350;2023-06-10T00:09:41;3.80;3.80;2.00
72509;PMS5003;60532;56.114;40.350;2023-06-10T00:11:41;5.50;4.75;2.00
72509;PMS5003;60532;56.114;40.350;2023-06-10T00:13:42;4.50;3.25;2.00
72509;PMS5003;60532;56.114;40.350;2023-06-10T00:15:42;2.75;2.75;2.00
72509;PMS5003;60532;56.114;40.350;2023-06-10T00:17:43;4.00;4.00;2.00
72509;PMS5003;60532;56.114;40.350;2023-06-10T00:19:44;9.00;5.00;2.25
72509;PMS5003;60532;56.114;40.350;2023-06-10T00:21:47;5.60;3.00;2.00
72509;PMS5003;60532;56.114;40.350;2023-06-10T00:23:47;3.75;3.50;2.00
72509;PMS5003;60532;56.114;40.350;2023-06-10T00:25:47;5.00;3.25;1.50
72509;PMS5003;60532;56.114;40.350;2023-06-10T00:27:48;4.25;3.25;2.25
72509;PMS5003;60532;56.114;40.350;2023-06-10T00:29:48;4.50;4.00;2.00
72509;PMS5003;60532;56.114;40.350;2023-06-10T00:31:49;3.00;3.00;2.00
72509;PMS5003;60532;56.114;40.350;2023-06-10T00:33:50;3.25;3.25;1.25
72509;PMS5003;60532;56.114;40.350;2023-06-10T00:35:50;5.00;5.00;3.00
72509;PMS5003;60532;56.114;40.350;2023-06-10T00:37:50;4.50;4.50;2.00
72509;PMS5003;60532;56.114;40.350;2023-06-10T00:39:51;2.00;2.00;1.00
72509;PMS5003;60532;56.114;40.350;2023-06-10T00:41:51;5.00;5.00;1.50
72509;PMS5003;60532;56.114;40.350;2023-06-10T00:43:52;4.00;4.00;2.00
72509;PMS5003;60532;56.114;40.350;2023-06-10T00:45:52;4.75;4.25;2.00
72509;PMS5003;60532;56.114;40.350;2023-06-10T00:47:53;3.75;3.75;1.75
72509;PMS5003;60532;56.114;40.350;2023-06-10T00:49:54;6.50;5.25;2.00
72509;PMS5003;60532;56.114;40.350;2023-06-10T00:51:54;1.00;1.00;0.00
72509;PMS5003;60532;56.114;40.350;2023-06-10T00:53:55;5.00;5.00;2.50
72509;PMS5003;60532;56.114;40.350;2023-06-10T00:55:56;5.80;4.20;2.00
72509;PMS5003;60532;56.114;40.350;2023-06-10T00:57:57;4.00;3.00;2.00
72509;PMS5003;60532;56.114;40.350;2023-06-10T00:59:57;4.50;4.00;2.50
72509;PMS5003;60532;56.114;40.350;2023-06-10T01:01:57;3.75;3.75;1.50
72509;PMS5003;60532;56.114;40.350;2023-06-10T01:03:59;1.60;1.60;0.00
72509;PMS5003;60532;56.114;40.350;2023-06-10T01:10:15;5.00;3.60;1.60
72509;PMS5003;60532;56.114;40.350;2023-06-10T01:12:18;3.00;3.00;2.00
72509;PMS5003;60532;56.114;40.350;2023-06-10T01:14:19;4.80;4.40;2.00
72509;PMS5003;60532;56.114;40.350;2023-06-10T01:16:21;6.40;3.80;2.00
72509;PMS5003;60532;56.114;40.350;2023-06-10T01:18:22;4.80;4.80;2.40
72509;PMS5003;60532;56.114;40.350;2023-06-10T01:20:22;7.75;3.75;2.00
72509;PMS5003;60532;56.114;40.350;2023-06-10T01:22:24;8.80;6.60;2.60
72509;PMS5003;60532;56.114;40.350;2023-06-10T01:24:26;6.20;4.00;3.00
72509;PMS5003;60532;56.114;40.350;2023-06-10T01:26:30;4.80;4.80;2.00
72509;PMS5003;60532;56.114;40.350;2023-06-10T01:30:48;3.40;3.40;2.00
72509;PMS5003;60532;56.114;40.350;2023-06-10T01:32:50;4.60;4.60;1.40
72509;PMS5003;60532;56.114;40.350;2023-06-10T01:34:51;3.00;3.00;1.20
72509;PMS5003;60532;56.114;40.350;2023-06-10T01:36:52;4.50;4.50;2.00
72509;PMS5003;60532;56.114;40.350;2023-06-10T01:38:55;3.80;3.00;2.00
72509;PMS5003;60532;56.114;40.350;2023-06-10T01:40:57;3.80;3.80;2.00
72509;PMS5003;60532;56.114;40.350;2023-06-10T01:42:58;5.00;4.75;3.00
72509;PMS5003;60532;56.114;40.350;2023-06-10T01:44:58;4.50;2.50;1.00
72509;PMS5003;60532;56.114;40.350;2023-06-10T01:46:59;5.25;4.75;2.00
72509;PMS5003;60532;56.114;40.350;2023-06-10T01:48:59;3.50;3.50;2.00
72509;PMS5003;60532;56.114;40.350;2023-06-10T01:51:00;7.50;4.00;2.00
72509;PMS5003;60532;56.114;40.350;2023-06-10T01:53:00;4.00;4.00;2.00
72509;PMS5003;60532;56.114;40.350;2023-06-10T01:55:00;3.75;3.00;1.25
72509;PMS5003;60532;56.114;40.350;2023-06-10T01:57:01;4.25;4.25;2.00
72509;PMS5003;60532;56.114;40.350;2023-06-10T01:59:02;2.75;2.75;1.00
72509;PMS5003;60532;56.114;40.350;2023-06-10T02:01:02;5.20;3.60;2.00
72509;PMS5003;60532;56.114;40.350;2023-06-10T02:03:03;3.75;3.75;2.50
72509;PMS5003;60532;56.114;40.350;2023-06-10T02:05:03;4.00;4.00;2.00
72509;PMS5003;60532;56.114;40.350;2023-06-10T02:07:05;5.00;4.60;2.00
72509;PMS5003;60532;56.114;40.350;2023-06-10T02:09:06;6.00;4.25;2.00
72509;PMS5003;60532;56.114;40.350;2023-06-10T02:11:06;2.50;2.50;2.00
72509;PMS5003;60532;56.114;40.350;2023-06-10T02:13:07;4.25;4.00;1.25
72509;PMS5003;60532;56.114;40.350;2023-06-10T02:15:07;3.00;3.00;1.00
72509;PMS5003;60532;56.114;40.350;2023-06-10T02:17:08;4.00;4.00;2.75
72509;PMS5003;60532;56.114;40.350;2023-06-10T02:19:13;4.00;4.00;1.60
72509;PMS5003;60532;56.114;40.350;2023-06-10T02:21:13;3.25;3.25;2.00
72509;PMS5003;60532;56.114;40.350;2023-06-10T02:23:14;5.00;3.75;2.00
72509;PMS5003;60532;56.114;40.350;2023-06-10T02:25:14;5.20;4.80;2.00
72509;PMS5003;60532;56.114;40.350;2023-06-10T02:27:15;2.75;2.75;1.25
72509;PMS5003;60532;56.114;40.350;2023-06-10T02:29:16;5.00;5.00;2.00
72509;PMS5003;60532;56.114;40.350;2023-06-10T02:31:17;5.50;4.00;2.00
72509;PMS5003;60532;56.114;40.350;2023-06-10T02:33:18;3.00;3.00;1.20
72509;PMS5003;60532;56.114;40.350;2023-06-10T02:35:18;2.50;2.50;1.25
72509;PMS5003;60532;56.114;40.350;2023-06-10T02:37:19;3.00;2.75;1.00
72509;PMS5003;60532;56.114;40.350;2023-06-10T02:39:19;2.00;2.00;1.75
72509;PMS5003;60532;56.114;40.350;2023-06-10T02:41:20;6.00;3.00;1.75
72509;PMS5003;60532;56.114;40.350;2023-06-10T02:43:21;1.80;1.80;1.00
72509;PMS5003;60532;56.114;40.350;2023-06-10T02:45:22;3.00;3.00;1.00
72509;PMS5003;60532;56.114;40.350;2023-06-10T02:47:22;4.25;3.00;2.00
72509;PMS5003;60532;56.114;40.350;2023-06-10T02:49:23;1.25;1.25;1.00
72509;PMS5003;60532;56.114;40.350;2023-06-10T02:51:23;4.00;4.00;2.00
72509;PMS5003;60532;56.114;40.350;2023-06-10T02:53:24;3.50;3.50;2.00
72509;PMS5003;60532;56.114;40.350;2023-06-10T02:55:24;3.75;2.00;1.50
72509;PMS5003;60532;56.114;40.350;2023-06-10T02:57:26;2.60;2.00;0.00
72509;PMS5003;60532;56.114;40.350;2023-06-10T02:59:26;2.00;2.00;1.00
72509;PMS5003;60532;56.114;40.350;2023-06-10T03:01:28;2.60;2.00;0.60
72509;PMS5003;60532;56.114;40.350;2023-06-10T03:03:31;1.00;1.00;0.20
72509;PMS5003;60532;56.114;40.350;2023-06-10T03:05:33;2.00;2.00;1.00
72509;PMS5003;60532;56.114;40.350;2023-06-10T03:07:34;2.00;2.00;1.00
72509;PMS5003;60532;56.114;40.350;2023-06-10T03:09:35;4.20;3.60;2.00
72509;PMS5003;60532;56.114;40.350;2023-06-10T03:11:35;2.67;2.67;1.33
72509;PMS5003;60532;56.114;40.350;2023-06-10T03:13:36;3.33;2.00;0.33
72509;PMS5003;60532;56.114;40.350;2023-06-10T03:15:36;1.67;1.67;1.00
72509;PMS5003;60532;56.114;40.350;2023-06-10T03:17:37;2.50;1.00;1.00
72509;PMS5003;60532;56.114;40.350;2023-06-10T03:19:38;1.33;1.00;0.00
72509;PMS5003;60532;56.114;40.350;2023-06-10T03:21:43;2.00;2.00;1.00
72509;PMS5003;60532;56.114;40.350;2023-06-10T03:23:43;3.00;1.50;0.50
72509;PMS5003;60532;56.114;40.350;2023-06-10T03:25:44;2.33;2.00;0.00
72509;PMS5003;60532;56.114;40.350;2023-06-10T03:27:45;2.00;1.75;0.75
72509;PMS5003;60532;56.114;40.350;2023-06-10T03:29:46;1.75;1.75;1.00
72509;PMS5003;60532;56.114;40.350;2023-06-10T03:31:47;0.67;0.67;0.00
72509;PMS5003;60532;56.114;40.350;2023-06-10T03:33:47;3.33;2.00;0.67
72509;PMS5003;60532;56.114;40.350;2023-06-10T03:35:48;2.00;1.00;1.00
72509;PMS5003;60532;56.114;40.350;2023-06-10T03:37:48;1.00;1.00;0.67
72509;PMS5003;60532;56.114;40.350;2023-06-10T03:39:49;2.67;1.33;1.00
72509;PMS5003;60532;56.114;40.350;2023-06-10T03:41:50;3.33;2.33;1.00
72509;PMS5003;60532;56.114;40.350;2023-06-10T03:43:50;0.67;0.67;0.33
72509;PMS5003;60532;56.114;40.350;2023-06-10T03:45:51;2.67;2.67;1.00
72509;PMS5003;60532;56.114;40.350;2023-06-10T03:47:52;0.75;0.75;0.25
72509;PMS5003;60532;56.114;40.350;2023-06-10T03:49:53;2.00;2.00;0.67
72509;PMS5003;60532;56.114;40.350;2023-06-10T03:51:53;3.25;3.25;1.00
72509;PMS5003;60532;56.114;40.350;2023-06-10T03:53:54;1.00;1.00;0.67
72509;PMS5003;60532;56.114;40.350;2023-06-10T03:55:54;2.00;2.00;0.00
72509;PMS5003;60532;56.114;40.350;2023-06-10T03:57:55;1.00;1.00;0.00
72509;PMS5003;60532;56.114;40.350;2023-06-10T03:59:56;2.67;0.67;0.67
72509;PMS5003;60532;56.114;40.350;2023-06-10T04:01:56;3.00;1.00;0.00
72509;PMS5003;60532;56.114;40.350;2023-06-10T04:03:57;1.00;1.00;0.00
72509;PMS5003;60532;56.114;40.350;2023-06-10T04:05:57;1.33;1.33;0.00
72509;PMS5003;60532;56.114;40.350;2023-06-10T04:07:58;1.00;1.00;0.00
72509;PMS5003;60532;56.114;40.350;2023-06-10T04:09:59;1.00;1.00;1.00
72509;PMS5003;60532;56.114;40.350;2023-06-10T04:12:00;0.67;0.67;0.00
72509;PMS5003;60532;56.114;40.350;2023-06-10T04:14:00;1.00;1.00;0.00
72509;PMS5003;60532;56.114;40.350;2023-06-10T04:16:01;0.00;0.00;0.00
72509;PMS5003;60532;56.114;40.350;2023-06-10T04:18:02;1.75;1.75;0.00
72509;PMS5003;60532;56.114;40.350;2023-06-10T04:20:03;2.00;0.67;0.33
72509;PMS5003;60532;56.114;40.350;2023-06-10T04:22:06;1.00;1.00;0.75
72509;PMS5003;60532;56.114;40.350;2023-06-10T04:24:07;0.75;0.75;0.75
72509;PMS5003;60532;56.114;40.350;2023-06-10T04:26:07;0.00;0.00;0.00
72509;PMS5003;60532;56.114;40.350;2023-06-10T04:28:08;0.75;0.75;0.25
72509;PMS5003;60532;56.114;40.350;2023-06-10T04:30:09;1.00;0.75;0.50
72509;PMS5003;60532;56.114;40.350;2023-06-10T04:32:09;0.00;0.00;0.00
72509;PMS5003;60532;56.114;40.350;2023-06-10T04:34:10;0.75;0.75;0.25
72509;PMS5003;60532;56.114;40.350;2023-06-10T04:36:10;3.00;0.00;0.00
72509;PMS5003;60532;56.114;40.350;2023-06-10T04:38:11;0.00;0.00;0.00
72509;PMS5003;60532;56.114;40.350;2023-06-10T04:40:12;0.00;0.00;0.00
72509;PMS5003;60532;56.114;40.350;2023-06-10T04:42:13;0.40;0.40;0.00
72509;PMS5003;60532;56.114;40.350;2023-06-10T04:44:14;1.00;1.00;0.00
72509;PMS5003;60532;56.114;40.350;2023-06-10T04:46:14;0.75;0.00;0.00
72509;PMS5003;60532;56.114;40.350;2023-06-10T04:48:15;1.00;1.00;0.00
72509;PMS5003;60532;56.114;40.350;2023-06-10T04:50:16;1.00;0.00;0.00
72509;PMS5003;60532;56.114;40.350;2023-06-10T04:52:16;0.75;0.00;0.00
72509;PMS5003;60532;56.114;40.350;2023-06-10T04:54:17;0.00;0.00;0.00
72509;PMS5003;60532;56.114;40.350;2023-06-10T04:56:18;0.50;0.50;0.00
72509;PMS5003;60532;56.114;40.350;2023-06-10T04:58:18;0.75;0.75;0.00
72509;PMS5003;60532;56.114;40.350;2023-06-10T05:00:19;1.75;0.75;0.00
72509;PMS5003;60532;56.114;40.350;2023-06-10T05:02:20;0.80;0.80;0.00
72509;PMS5003;60532;56.114;40.350;2023-06-10T05:04:20;1.75;0.75;0.00
72509;PMS5003;60532;56.114;40.350;2023-06-10T05:06:21;0.50;0.00;0.00
72509;PMS5003;60532;56.114;40.350;2023-06-10T05:08:22;2.00;2.00;0.75
72509;PMS5003;60532;56.114;40.350;2023-06-10T05:10:22;1.00;1.00;0.00
72509;PMS5003;60532;56.114;40.350;2023-06-10T05:12:23;0.00;0.00;0.00
72509;PMS5003;60532;56.114;40.350;2023-06-10T05:14:23;0.75;0.00;0.00
72509;PMS5003;60532;56.114;40.350;2023-06-10T05:16:24;2.75;0.75;0.75
72509;PMS5003;60532;56.114;40.350;2023-06-10T05:18:24;2.50;1.75;0.00
72509;PMS5003;60532;56.114;40.350;2023-06-10T05:20:25;0.75;0.75;0.00
72509;PMS5003;60532;56.114;40.350;2023-06-10T05:22:25;3.00;3.00;1.00
72509;PMS5003;60532;56.114;40.350;2023-06-10T05:24:28;2.40;2.40;0.80
72509;PMS5003;60532;56.114;40.350;2023-06-10T05:26:28;1.00;1.00;1.00
72509;PMS5003;60532;56.114;40.350;2023-06-10T05:28:31;2.00;2.00;1.00
72509;PMS5003;60532;56.114;40.350;2023-06-10T05:30:32;4.75;4.75;1.75
72509;PMS5003;60532;56.114;40.350;2023-06-10T05:32:32;3.00;2.25;0.00
72509;PMS5003;60532;56.114;40.350;2023-06-10T05:34:33;1.50;1.50;0.00
72509;PMS5003;60532;56.114;40.350;2023-06-10T05:36:33;1.75;1.75;0.50
72509;PMS5003;60532;56.114;40.350;2023-06-10T05:38:34;2.00;2.00;0.00
72509;PMS5003;60532;56.114;40.350;2023-06-10T05:40:34;2.25;1.75;0.25
72509;PMS5003;60532;56.114;40.350;2023-06-10T05:42:35;0.75;0.75;0.75
72509;PMS5003;60532;56.114;40.350;2023-06-10T05:44:35;4.25;1.75;0.25
72509;PMS5003;60532;56.114;40.350;2023-06-10T05:46:36;1.00;1.00;0.00
72509;PMS5003;60532;56.114;40.350;2023-06-10T05:48:36;1.75;1.75;0.75
72509;PMS5003;60532;56.114;40.350;2023-06-10T05:50:36;1.00;1.00;0.00
72509;PMS5003;60532;56.114;40.350;2023-06-10T05:52:39;0.00;0.00;0.00
72509;PMS5003;60532;56.114;40.350;2023-06-10T05:54:40;1.00;1.00;0.00
72509;PMS5003;60532;56.114;40.350;2023-06-10T05:56:41;0.75;0.00;0.00
72509;PMS5003;60532;56.114;40.350;2023-06-10T05:58:41;0.50;0.50;0.00
72509;PMS5003;60532;56.114;40.350;2023-06-10T06:00:42;1.00;1.00;0.00
72509;PMS5003;60532;56.114;40.350;2023-06-10T06:02:42;0.00;0.00;0.00
72509;PMS5003;60532;56.114;40.350;2023-06-10T06:04:47;0.00;0.00;0.00
72509;PMS5003;60532;56.114;40.350;2023-06-10T06:06:47;0.00;0.00;0.00
72509;PMS5003;60532;56.114;40.350;2023-06-10T06:08:48;1.75;1.75;0.75
72509;PMS5003;60532;56.114;40.350;2023-06-10T06:10:49;1.00;1.00;0.00
72509;PMS5003;60532;56.114;40.350;2023-06-10T06:12:50;0.40;0.00;0.00
72509;PMS5003;60532;56.114;40.350;2023-06-10T06:14:50;4.25;2.75;0.75
72509;PMS5003;60532;56.114;40.350;2023-06-10T06:16:51;3.75;2.25;1.50
72509;PMS5003;60532;56.114;40.350;2023-06-10T06:18:51;5.00;4.50;3.00
72509;PMS5003;60532;56.114;40.350;2023-06-10T06:20:52;11.75;11.75;7.25
72509;PMS5003;60532;56.114;40.350;2023-06-10T06:22:52;14.50;14.50;10.50
72509;PMS5003;60532;56.114;40.350;2023-06-10T06:24:53;15.33;14.33;10.00
72509;PMS5003;60532;56.114;40.350;2023-06-10T06:26:53;22.00;20.00;12.67
72509;PMS5003;60532;56.114;40.350;2023-06-10T06:28:53;26.33;24.33;16.33
72509;PMS5003;60532;56.114;40.350;2023-06-10T06:30:57;16.33;12.00;7.67
72509;PMS5003;60532;56.114;40.350;2023-06-10T06:32:58;11.00;11.00;7.25
72509;PMS5003;60532;56.114;40.350;2023-06-10T06:34:58;8.33;6.33;4.33
72509;PMS5003;60532;56.114;40.350;2023-06-10T06:36:59;10.67;10.67;7.33
72509;PMS5003;60532;56.114;40.350;2023-06-10T06:38:59;6.33;6.33;5.00
72509;PMS5003;60532;56.114;40.350;2023-06-10T06:41:00;10.67;10.67;7.00
72509;PMS5003;60532;56.114;40.350;2023-06-10T06:43:03;8.75;4.50;2.00
72509;PMS5003;60532;56.114;40.350;2023-06-10T06:45:03;3.00;2.33;1.67
72509;PMS5003;60532;56.114;40.350;2023-06-10T06:47:04;3.33;2.33;1.00
72509;PMS5003;60532;56.114;40.350;2023-06-10T06:49:05;4.50;3.00;1.00
72509;PMS5003;60532;56.114;40.350;2023-06-10T06:51:06;3.00;3.00;2.00
72509;PMS5003;60532;56.114;40.350;2023-06-10T06:53:08;1.00;1.00;0.00
72509;PMS5003;60532;56.114;40.350;2023-06-10T06:55:09;2.00;2.00;1.00
72509;PMS5003;60532;56.114;40.350;2023-06-10T06:57:09;0.00;0.00;0.00
72509;PMS5003;60532;56.114;40.350;2023-06-10T06:59:09;1.00;1.00;0.00
72509;PMS5003;60532;56.114;40.350;2023-06-10T07:01:10;1.00;1.00;0.00
72509;PMS5003;60532;56.114;40.350;2023-06-10T07:03:10;1.00;1.00;0.00
72509;PMS5003;60532;56.114;40.350;2023-06-10T07:05:11;3.50;1.00;1.00
72509;PMS5003;60532;56.114;40.350;2023-06-10T07:07:11;3.00;1.00;0.25
72509;PMS5003;60532;56.114;40.350;2023-06-10T07:09:12;1.00;1.00;0.00
72509;PMS5003;60532;56.114;40.350;2023-06-10T07:11:13;2.25;1.00;1.00
72509;PMS5003;60532;56.114;40.350;2023-06-10T07:13:13;1.00;1.00;0.60
72509;PMS5003;60532;56.114;40.350;2023-06-10T07:15:14;0.75;0.75;0.00
72509;PMS5003;60532;56.114;40.350;2023-06-10T07:17:15;2.25;2.25;0.25
72509;PMS5003;60532;56.114;40.350;2023-06-10T07:19:15;1.00;1.00;1.00
72509;PMS5003;60532;56.114;40.350;2023-06-10T07:21:16;3.75;1.50;0.00
72509;PMS5003;60532;56.114;40.350;2023-06-10T07:23:16;2.00;2.00;1.00
72509;PMS5003;60532;56.114;40.350;2023-06-10T07:25:17;1.00;1.00;0.00
72509;PMS5003;60532;56.114;40.350;2023-06-10T07:27:17;2.00;2.00;0.00
72509;PMS5003;60532;56.114;40.350;2023-06-10T07:29:18;2.25;1.00;1.00
72509;PMS5003;60532;56.114;40.350;2023-06-10T07:31:18;0.50;0.50;0.50
72509;PMS5003;60532;56.114;40.350;2023-06-10T07:33:19;1.00;1.00;1.00
72509;PMS5003;60532;56.114;40.350;2023-06-10T07:35:19;2.75;1.00;0.25
72509;PMS5003;60532;56.114;40.350;2023-06-10T07:37:20;1.25;1.25;0.75
72509;PMS5003;60532;56.114;40.350;2023-06-10T07:39:20;1.00;1.00;0.00
72509;PMS5003;60532;56.114;40.350;2023-06-10T07:41:22;3.25;1.00;1.00
72509;PMS5003;60532;56.114;40.350;2023-06-10T07:43:23;1.00;1.00;0.80
72509;PMS5003;60532;56.114;40.350;2023-06-10T07:45:24;0.00;0.00;0.00
72509;PMS5003;60532;56.114;40.350;2023-06-10T07:47:25;2.20;2.00;0.00
72509;PMS5003;60532;56.114;40.350;2023-06-10T07:49:26;5.00;2.00;0.20
72509;PMS5003;60532;56.114;40.350;2023-06-10T07:51:26;4.75;2.00;1.00
72509;PMS5003;60532;56.114;40.350;2023-06-10T07:53:27;4.00;2.00;0.50
72509;PMS5003;60532;56.114;40.350;2023-06-10T07:55:27;1.75;1.75;1.00
72509;PMS5003;60532;56.114;40.350;2023-06-10T07:57:28;1.25;1.25;0.25
72509;PMS5003;60532;56.114;40.350;2023-06-10T07:59:28;1.00;1.00;0.00
72509;PMS5003;60532;56.114;40.350;2023-06-10T08:01:29;1.00;1.00;0.50
72509;PMS5003;60532;56.114;40.350;2023-06-10T08:03:30;1.00;1.00;0.80
72509;PMS5003;60532;56.114;40.350;2023-06-10T08:05:30;1.25;1.00;0.00
72509;PMS5003;60532;56.114;40.350;2023-06-10T08:07:31;2.50;2.50;1.00
72509;PMS5003;60532;56.114;40.350;2023-06-10T08:09:32;1.75;1.75;0.75
72509;PMS5003;60532;56.114;40.350;2023-06-10T08:11:32;3.50;2.00;0.00
72509;PMS5003;60532;56.114;40.350;2023-06-10T08:13:33;1.50;1.00;0.00
72509;PMS5003;60532;56.114;40.350;2023-06-10T08:15:33;2.00;1.00;0.00
72509;PMS5003;60532;56.114;40.350;2023-06-10T08:17:34;0.00;0.00;0.00
72509;PMS5003;60532;56.114;40.350;2023-06-10T08:19:34;2.00;0.40;0.00
72509;PMS5003;60532;56.114;40.350;2023-06-10T08:21:35;2.00;0.75;0.00
72509;PMS5003;60532;56.114;40.350;2023-06-10T08:23:39;2.20;1.00;0.20
72509;PMS5003;60532;56.114;40.350;2023-06-10T08:25:40;3.00;1.00;0.00
72509;PMS5003;60532;56.114;40.350;2023-06-10T08:27:40;1.00;1.00;0.00
72509;PMS5003;60532;56.114;40.350;2023-06-10T08:29:41;1.00;1.00;0.00
72509;PMS5003;60532;56.114;40.350;2023-06-10T08:31:42;1.25;1.25;0.75
72509;PMS5003;60532;56.114;40.350;2023-06-10T08:33:43;1.00;1.00;0.00
72509;PMS5003;60532;56.114;40.350;2023-06-10T08:35:43;1.00;1.00;0.00
72509;PMS5003;60532;56.114;40.350;2023-06-10T08:37:44;2.00;0.00;0.00
72509;PMS5003;60532;56.114;40.350;2023-06-10T08:39:44;2.25;2.00;0.25
72509;PMS5003;60532;56.114;40.350;2023-06-10T08:41:46;4.00;2.00;0.00
72509;PMS5003;60532;56.114;40.350;2023-06-10T08:43:53;1.60;1.00;0.00
72509;PMS5003;60532;56.114;40.350;2023-06-10T08:45:55;2.00;2.00;0.00
72509;PMS5003;60532;56.114;40.350;2023-06-10T08:48:00;1.80;1.80;0.80
72509;PMS5003;60532;56.114;40.350;2023-06-10T08:50:04;1.00;0.20;0.00
72509;PMS5003;60532;56.114;40.350;2023-06-10T08:52:05;1.20;1.00;0.60
72509;PMS5003;60532;56.114;40.350;2023-06-10T08:54:11;2.00;2.00;0.80
72509;PMS5003;60532;56.114;40.350;2023-06-10T08:56:15;2.00;0.60;0.00
72509;PMS5003;60532;56.114;40.350;2023-06-10T08:58:17;1.00;0.60;0.00
72509;PMS5003;60532;56.114;40.350;2023-06-10T09:00:19;1.00;1.00;0.00
72509;PMS5003;60532;56.114;40.350;2023-06-10T09:02:20;0.75;0.75;0.00
72509;PMS5003;60532;56.114;40.350;2023-06-10T09:04:20;1.00;1.00;0.00
72509;PMS5003;60532;56.114;40.350;2023-06-10T09:06:21;1.00;1.00;0.50
72509;PMS5003;60532;56.114;40.350;2023-06-10T09:08:22;2.40;1.00;0.00
72509;PMS5003;60532;56.114;40.350;2023-06-10T09:10:22;1.00;1.00;0.00
72509;PMS5003;60532;56.114;40.350;2023-06-10T09:12:23;2.00;2.00;0.00
72509;PMS5003;60532;56.114;40.350;2023-06-10T09:14:23;2.25;1.00;0.00
72509;PMS5003;60532;56.114;40.350;2023-06-10T09:16:24;1.75;1.75;1.50
72509;PMS5003;60532;56.114;40.350;2023-06-10T09:18:25;2.80;2.80;1.00
72509;PMS5003;60532;56.114;40.350;2023-06-10T09:20:26;1.60;1.60;1.00
72509;PMS5003;60532;56.114;40.350;2023-06-10T09:22:26;1.25;1.25;0.00
72509;PMS5003;60532;56.114;40.350;2023-06-10T09:24:28;1.00;1.00;0.40
72509;PMS5003;60532;56.114;40.350;2023-06-10T09:26:29;2.00;2.00;1.00
72509;PMS5003;60532;56.114;40.350;2023-06-10T09:28:32;1.00;1.00;0.60
72509;PMS5003;60532;56.114;40.350;2023-06-10T09:30:33;1.00;1.00;0.00
72509;PMS5003;60532;56.114;40.350;2023-06-10T09:32:38;3.00;2.00;0.80
72509;PMS5003;60532;56.114;40.350;2023-06-10T09:34:38;0.20;0.20;0.00
72509;PMS5003;60532;56.114;40.350;2023-06-10T09:36:40;2.00;2.00;0.00
72509;PMS5003;60532;56.114;40.350;2023-06-10T09:38:40;3.40;2.00;1.40
72509;PMS5003;60532;56.114;40.350;2023-06-10T09:40:51;1.75;1.75;0.25
72509;PMS5003;60532;56.114;40.350;2023-06-10T09:44:56;1.00;1.00;0.00
72509;PMS5003;60532;56.114;40.350;2023-06-10T09:46:56;1.00;1.00;0.80
72509;PMS5003;60532;56.114;40.350;2023-06-10T09:48:59;1.80;1.80;0.60
72509;PMS5003;60532;56.114;40.350;2023-06-10T09:51:00;2.00;2.00;0.00
72509;PMS5003;60532;56.114;40.350;2023-06-10T09:53:00;1.50;1.00;1.00
72509;PMS5003;60532;56.114;40.350;2023-06-10T09:55:02;2.00;2.00;1.00
72509;PMS5003;60532;56.114;40.350;2023-06-10T09:57:06;2.00;1.50;0.00
72509;PMS5003;60532;56.114;40.350;2023-06-10T09:59:07;3.00;3.00;1.00
72509;PMS5003;60532;56.114;40.350;2023-06-10T10:01:09;1.00;0.75;0.00
72509;PMS5003;60532;56.114;40.350;2023-06-10T10:03:09;1.00;1.00;1.00
72509;PMS5003;60532;56.114;40.350;2023-06-10T10:05:10;2.50;2.00;1.00
72509;PMS5003;60532;56.114;40.350;2023-06-10T10:07:11;1.00;1.00;0.00
72509;PMS5003;60532;56.114;40.350;2023-06-10T10:09:11;2.00;1.00;0.50
72509;PMS5003;60532;56.114;40.350;2023-06-10T10:11:12;3.50;2.00;1.00
72509;PMS5003;60532;56.114;40.350;2023-06-10T10:13:12;4.00;2.00;1.00
72509;PMS5003;60532;56.114;40.350;2023-06-10T10:15:13;4.00;1.00;0.00
72509;PMS5003;60532;56.114;40.350;2023-06-10T10:17:16;1.20;1.00;0.00
72509;PMS5003;60532;56.114;40.350;2023-06-10T10:19:27;2.60;2.60;1.00
72509;PMS5003;60532;56.114;40.350;2023-06-10T10:21:31;1.00;1.00;1.00
72509;PMS5003;60532;56.114;40.350;2023-06-10T10:23:38;1.00;1.00;0.00
72509;PMS5003;60532;56.114;40.350;2023-06-10T10:25:41;1.00;1.00;0.00
72509;PMS5003;60532;56.114;40.350;2023-06-10T10:27:51;1.80;1.80;1.00
72509;PMS5003;60532;56.114;40.350;2023-06-10T10:29:55;6.20;3.20;1.40
72509;PMS5003;60532;56.114;40.350;2023-06-10T10:31:57;2.40;2.40;1.00
72509;PMS5003;60532;56.114;40.350;2023-06-10T10:34:00;2.20;2.20;1.00
72509;PMS5003;60532;56.114;40.350;2023-06-10T10:36:02;1.00;1.00;0.00
72509;PMS5003;60532;56.114;40.350;2023-06-10T10:38:04;1.60;1.00;0.80
72509;PMS5003;60532;56.114;40.350;2023-06-10T10:40:05;2.40;1.60;0.60
72509;PMS5003;60532;56.114;40.350;2023-06-10T10:42:07;6.80;3.20;1.00
72509;PMS5003;60532;56.114;40.350;2023-06-10T10:44:10;1.40;1.00;0.40
72509;PMS5003;60532;56.114;40.350;2023-06-10T10:46:12;3.80;2.40;1.00
72509;PMS5003;60532;56.114;40.350;2023-06-10T10:48:14;2.60;1.00;0.60
72509;PMS5003;60532;56.114;40.350;2023-06-10T10:50:15;2.60;2.60;1.00
72509;PMS5003;60532;56.114;40.350;2023-06-10T10:52:16;1.00;1.00;0.00
72509;PMS5003;60532;56.114;40.350;2023-06-10T10:54:17;3.50;1.00;0.25
72509;PMS5003;60532;56.114;40.350;2023-06-10T10:56:17;1.00;1.00;0.00
72509;PMS5003;60532;56.114;40.350;2023-06-10T10:58:23;2.00;2.00;1.00
72509;PMS5003;60532;56.114;40.350;2023-06-10T11:00:26;0.80;0.80;0.00
72509;PMS5003;60532;56.114;40.350;2023-06-10T11:04:43;2.00;2.00;0.20
72509;PMS5003;60532;56.114;40.350;2023-06-10T11:06:53;2.40;2.00;0.20
72509;PMS5003;60532;56.114;40.350;2023-06-10T11:08:54;3.00;3.00;1.40
72509;PMS5003;60532;56.114;40.350;2023-06-10T11:10:55;1.80;1.80;1.00
72509;PMS5003;60532;56.114;40.350;2023-06-10T11:12:56;1.50;1.25;0.00
72509;PMS5003;60532;56.114;40.350;2023-06-10T11:14:56;0.75;0.75;0.00
72509;PMS5003;60532;56.114;40.350;2023-06-10T11:16:57;3.00;3.00;1.00
72509;PMS5003;60532;56.114;40.350;2023-06-10T11:18:58;1.00;1.00;1.00
72509;PMS5003;60532;56.114;40.350;2023-06-10T11:21:00;2.50;1.75;0.50
72509;PMS5003;60532;56.114;40.350;2023-06-10T11:23:01;3.60;2.60;1.00
72509;PMS5003;60532;56.114;40.350;2023-06-10T11:25:02;2.60;2.60;1.00
72509;PMS5003;60532;56.114;40.350;2023-06-10T11:27:18;4.50;4.25;1.75
72509;PMS5003;60532;56.114;40.350;2023-06-10T11:29:19;3.00;1.40;0.80
72509;PMS5003;60532;56.114;40.350;2023-06-10T11:31:21;1.80;1.80;1.00
72509;PMS5003;60532;56.114;40.350;2023-06-10T11:33:21;5.60;3.00;2.00
72509;PMS5003;60532;56.114;40.350;2023-06-10T11:35:23;3.20;2.20;1.60
72509;PMS5003;60532;56.114;40.350;2023-06-10T11:37:23;2.00;2.00;1.40
72509;PMS5003;60532;56.114;40.350;2023-06-10T11:39:24;2.00;2.00;1.25
72509;PMS5003;60532;56.114;40.350;2023-06-10T11:41:27;4.60;3.80;2.00
72509;PMS5003;60532;56.114;40.350;2023-06-10T11:43:29;3.00;3.00;1.40
72509;PMS5003;60532;56.114;40.350;2023-06-10T11:45:30;3.00;3.00;2.00
72509;PMS5003;60532;56.114;40.350;2023-06-10T11:47:30;6.00;3.00;1.50
72509;PMS5003;60532;56.114;40.350;2023-06-10T11:49:31;1.50;1.00;1.00